Time;durP1;ratioP1;P1;durP2;ratioP2;P2;SDS_P1;SDS_P2;PMS_P1;PMS_P2;Temp;Humidity;BMP_temperature;BMP_pressure;BME280_temperature;BME280_humidity;BME280_pressure;Samples;Min_cycle;Max_cycle;Signal;HPM_P1;HPM_P2
2023/04/15 00:00:19;;;;;;;10.18;5.75;;;;;;;;;;6306597;22;20094;-76
2023/04/15 00:02:47;;;;;;;5.95;4.55;;;;;;;;;;6308246;22;20010;-76
2023/04/15 00:05:13;;;;;;;12.90;5.40;;;;;;;;;;6307580;22;20306;-76
2023/04/15 00:07:39;;;;;;;14.73;6.68;;;;;;;;;;6307845;22;20006;-76
2023/04/15 00:10:05;;;;;;;15.23;6.18;;;;;;;;;;6336445;22;20021;-76
2023/04/15 00:12:31;;;;;;;13.10;6.20;;;;;;;;;;6308337;22;20048;-75
2023/04/15 00:14:58;;;;;;;7.90;5.72;;;;;;;;;;6335809;22;19998;-76
2023/04/15 00:17:24;;;;;;;7.30;3.88;;;;;;;;;;6307889;22;20003;-77
2023/04/15 00:19:52;;;;;;;8.35;4.63;;;;;;;;;;6307281;22;20007;-77
2023/04/15 00:22:18;;;;;;;14.02;8.45;;;;;;;;;;6308110;22;20013;-76
2023/04/15 00:24:44;;;;;;;11.02;6.18;;;;;;;;;;6336146;22;20007;-77
2023/04/15 00:27:10;;;;;;;11.90;6.25;;;;;;;;;;6307696;22;20034;-77
2023/04/15 00:29:36;;;;;;;12.63;5.25;;;;;;;;;;6304399;22;20492;-78
2023/04/15 00:32:03;;;;;;;8.05;4.22;;;;;;;;;;6305972;22;20082;-77
2023/04/15 00:34:29;;;;;;;6.78;3.33;;;;;;;;;;6308259;22;19999;-76
2023/04/15 00:36:55;;;;;;;6.10;3.13;;;;;;;;;;6306582;22;20062;-77
2023/04/15 00:39:22;;;;;;;6.68;3.60;;;;;;;;;;6306877;22;20068;-77
2023/04/15 00:41:48;;;;;;;7.70;3.42;;;;;;;;;;6334609;22;20005;-77
2023/04/15 00:44:14;;;;;;;8.60;3.72;;;;;;;;;;6306121;22;20018;-78
2023/04/15 00:46:41;;;;;;;5.82;3.63;;;;;;;;;;6306845;22;20067;-77
2023/04/15 00:49:07;;;;;;;8.27;3.25;;;;;;;;;;6335614;22;20007;-77
2023/04/15 00:51:35;;;;;;;9.90;4.85;;;;;;;;;;6335480;22;20002;-76
2023/04/15 00:54:06;;;;;;;11.05;4.15;;;;;;;;;;6336388;22;20013;-77
2023/04/15 00:56:37;;;;;;;7.32;4.03;;;;;;;;;;6335281;22;20011;-77
2023/04/15 00:59:05;;;;;;;10.18;4.63;;;;;;;;;;6307946;22;20011;-78
2023/04/15 01:01:31;;;;;;;9.52;5.47;;;;;;;;;;6334732;22;20002;-76
2023/04/15 01:03:57;;;;;;;6.90;4.82;;;;;;;;;;6336818;22;20003;-77
2023/04/15 01:06:26;;;;;;;6.97;4.18;;;;;;;;;;6333862;22;20758;-77
2023/04/15 01:08:53;;;;;;;8.43;5.18;;;;;;;;;;6307264;22;20017;-77
2023/04/15 01:11:19;;;;;;;5.93;5.07;;;;;;;;;;6334520;22;20044;-76
2023/04/15 01:13:46;;;;;;;5.97;4.45;;;;;;;;;;6306942;22;20057;-77
2023/04/15 01:16:13;;;;;;;8.63;4.95;;;;;;;;;;6334789;22;20102;-77
2023/04/15 01:18:39;;;;;;;6.35;4.13;;;;;;;;;;6334703;22;20005;-77
2023/04/15 01:21:06;;;;;;;8.80;3.83;;;;;;;;;;6334690;22;20014;-78
2023/04/15 01:23:36;;;;;;;6.55;4.00;;;;;;;;;;6307200;22;20003;-78
2023/04/15 01:26:02;;;;;;;9.95;4.43;;;;;;;;;;6333982;22;19995;-76
2023/04/15 01:28:28;;;;;;;8.10;3.72;;;;;;;;;;6306086;22;19995;-77
2023/04/15 01:31:06;;;;;;;5.75;4.03;;;;;;;;;;6307630;22;20003;-78
2023/04/15 01:33:33;;;;;;;10.18;4.50;;;;;;;;;;6303365;22;20089;-78
2023/04/15 01:35:59;;;;;;;6.63;4.38;;;;;;;;;;6307509;22;20003;-78
2023/04/15 01:38:27;;;;;;;8.77;4.53;;;;;;;;;;6309057;22;20424;-76
2023/04/15 01:40:53;;;;;;;7.93;4.25;;;;;;;;;;6307252;22;20014;-76
2023/04/15 01:43:19;;;;;;;6.43;4.38;;;;;;;;;;6335172;22;20007;-77
2023/04/15 01:45:45;;;;;;;9.10;3.85;;;;;;;;;;6307176;22;20014;-77
2023/04/15 01:48:12;;;;;;;6.53;3.97;;;;;;;;;;6307952;22;20007;-78
2023/04/15 01:50:38;;;;;;;7.68;4.40;;;;;;;;;;6307488;22;20344;-78
2023/04/15 01:53:04;;;;;;;7.47;4.32;;;;;;;;;;6308003;22;20033;-76
2023/04/15 01:55:31;;;;;;;8.93;3.60;;;;;;;;;;6304818;22;20025;-76
2023/04/15 01:57:57;;;;;;;5.50;3.65;;;;;;;;;;6306681;22;20014;-78
2023/04/15 02:00:23;;;;;;;6.93;3.42;;;;;;;;;;6335614;22;20059;-77
2023/04/15 02:02:50;;;;;;;6.32;3.42;;;;;;;;;;6333227;22;20168;-75
2023/04/15 02:05:16;;;;;;;4.85;3.70;;;;;;;;;;6303398;22;20011;-77
2023/04/15 02:07:42;;;;;;;14.23;4.53;;;;;;;;;;6335495;22;20372;-77
2023/04/15 02:10:09;;;;;;;8.48;3.75;;;;;;;;;;6306251;22;20010;-77
2023/04/15 02:12:35;;;;;;;9.73;4.20;;;;;;;;;;6333839;22;19999;-77
2023/04/15 02:15:02;;;;;;;5.72;3.90;;;;;;;;;;6306316;22;20441;-77
2023/04/15 02:17:28;;;;;;;5.50;3.90;;;;;;;;;;6306974;22;19999;-77
2023/04/15 02:19:55;;;;;;;8.00;4.00;;;;;;;;;;6308215;22;20335;-76
2023/04/15 02:22:22;;;;;;;6.32;3.25;;;;;;;;;;6333712;22;20078;-77
2023/04/15 02:24:48;;;;;;;4.78;2.95;;;;;;;;;;6305818;22;20336;-76
2023/04/15 02:27:17;;;;;;;6.90;3.92;;;;;;;;;;6334360;22;20110;-77
2023/04/15 02:29:47;;;;;;;6.53;3.88;;;;;;;;;;6334020;22;20010;-77
2023/04/15 02:32:13;;;;;;;7.60;4.00;;;;;;;;;;6306451;22;20072;-77
2023/04/15 02:34:41;;;;;;;5.53;3.58;;;;;;;;;;6331477;22;19999;-77
2023/04/15 02:37:11;;;;;;;8.15;4.00;;;;;;;;;;6305439;22;20007;-77
2023/04/15 02:39:39;;;;;;;8.77;4.05;;;;;;;;;;6335689;22;20083;-77
2023/04/15 02:42:05;;;;;;;8.48;3.80;;;;;;;;;;6279532;22;20006;-77
2023/04/15 02:44:32;;;;;;;8.65;3.97;;;;;;;;;;6306832;22;20037;-76
2023/04/15 02:46:59;;;;;;;5.78;3.83;;;;;;;;;;6306590;22;20003;-77
2023/04/15 02:49:25;;;;;;;5.70;4.38;;;;;;;;;;6306217;22;20013;-77
2023/04/15 02:51:51;;;;;;;9.45;3.80;;;;;;;;;;6333857;22;20652;-77
2023/04/15 02:54:18;;;;;;;5.45;3.65;;;;;;;;;;6307668;22;20071;-76
2023/04/15 02:56:44;;;;;;;5.07;3.22;;;;;;;;;;6328968;22;20086;-77
2023/04/15 02:59:11;;;;;;;8.30;3.75;;;;;;;;;;6303294;22;20077;-77
2023/04/15 03:01:37;;;;;;;7.60;3.67;;;;;;;;;;6332198;22;20107;-77
2023/04/15 03:04:04;;;;;;;8.90;3.60;;;;;;;;;;6334735;22;19999;-77
2023/04/15 03:06:30;;;;;;;8.32;4.38;;;;;;;;;;6308090;22;20401;-77
2023/04/15 03:08:56;;;;;;;8.55;4.20;;;;;;;;;;6333806;22;20042;-76
2023/04/15 03:11:22;;;;;;;7.47;3.75;;;;;;;;;;6331983;22;20053;-76
2023/04/15 03:13:48;;;;;;;5.85;3.47;;;;;;;;;;6305450;22;20010;-77
2023/04/15 03:16:15;;;;;;;5.32;3.92;;;;;;;;;;6307258;22;20086;-76
2023/04/15 03:18:41;;;;;;;11.00;4.30;;;;;;;;;;6335089;22;20010;-77
2023/04/15 03:21:07;;;;;;;7.00;3.53;;;;;;;;;;6306271;22;20617;-77
2023/04/15 03:23:33;;;;;;;11.65;6.03;;;;;;;;;;6306657;22;20037;-77
2023/04/15 03:26:01;;;;;;;8.35;3.83;;;;;;;;;;6307583;22;20332;-76
2023/04/15 03:28:28;;;;;;;12.43;4.45;;;;;;;;;;6333068;22;20002;-78
2023/04/15 03:30:55;;;;;;;7.88;3.90;;;;;;;;;;6332523;22;20007;-77
2023/04/15 03:33:21;;;;;;;10.90;6.22;;;;;;;;;;6306563;22;20003;-76
2023/04/15 03:35:47;;;;;;;10.55;4.30;;;;;;;;;;6332755;22;20510;-77
2023/04/15 03:38:13;;;;;;;7.93;3.97;;;;;;;;;;6334607;22;20013;-76
2023/04/15 03:40:42;;;;;;;7.72;3.95;;;;;;;;;;6332844;22;20014;-77
2023/04/15 03:43:11;;;;;;;9.70;3.63;;;;;;;;;;6333597;22;20083;-76
2023/04/15 03:45:37;;;;;;;7.97;4.00;;;;;;;;;;6304951;22;20002;-76
2023/04/15 03:48:03;;;;;;;9.35;3.65;;;;;;;;;;6306583;22;20329;-76
2023/04/15 03:50:29;;;;;;;7.20;3.88;;;;;;;;;;6304133;22;20496;-77
2023/04/15 03:52:55;;;;;;;8.18;3.28;;;;;;;;;;6304112;22;20010;-76
2023/04/15 03:55:21;;;;;;;7.45;4.57;;;;;;;;;;6305712;22;20015;-76
2023/04/15 03:57:47;;;;;;;7.95;3.65;;;;;;;;;;6303849;22;20010;-76
2023/04/15 04:00:14;;;;;;;6.53;3.78;;;;;;;;;;6333449;22;20003;-76
2023/04/15 04:02:40;;;;;;;11.75;5.10;;;;;;;;;;6306765;22;20033;-76
2023/04/15 04:05:07;;;;;;;7.82;3.50;;;;;;;;;;6332642;22;20011;-77
2023/04/15 04:07:33;;;;;;;5.97;4.00;;;;;;;;;;6306161;22;20029;-76
2023/04/15 04:09:59;;;;;;;7.20;3.28;;;;;;;;;;6309217;22;20003;-76
2023/04/15 04:12:25;;;;;;;6.57;3.90;;;;;;;;;;6305651;22;20003;-77
2023/04/15 04:14:51;;;;;;;5.72;3.60;;;;;;;;;;6336057;22;19999;-76
2023/04/15 04:17:18;;;;;;;7.60;3.50;;;;;;;;;;6306404;22;20010;-77
2023/04/15 04:19:44;;;;;;;6.75;3.92;;;;;;;;;;6306642;22;20014;-76
2023/04/15 04:22:11;;;;;;;8.52;4.28;;;;;;;;;;6335584;22;20003;-77
2023/04/15 04:24:37;;;;;;;7.20;3.17;;;;;;;;;;6307190;22;20013;-76
2023/04/15 04:27:03;;;;;;;7.43;3.72;;;;;;;;;;6336159;22;20193;-76
2023/04/15 04:29:29;;;;;;;6.15;3.40;;;;;;;;;;6333511;22;20056;-76
2023/04/15 04:31:55;;;;;;;6.60;3.85;;;;;;;;;;6335128;22;19998;-76
2023/04/15 04:34:21;;;;;;;8.18;3.30;;;;;;;;;;6308127;22;20003;-78
2023/04/15 04:36:47;;;;;;;8.65;4.07;;;;;;;;;;6308997;22;20064;-76
2023/04/15 04:39:14;;;;;;;6.80;3.47;;;;;;;;;;6307588;22;20011;-76
2023/04/15 04:41:40;;;;;;;8.80;4.25;;;;;;;;;;6335705;22;19999;-76
2023/04/15 04:44:06;;;;;;;8.23;3.50;;;;;;;;;;6335685;22;20011;-78
2023/04/15 04:46:32;;;;;;;4.90;3.28;;;;;;;;;;6334249;22;19999;-78
2023/04/15 04:48:58;;;;;;;5.82;3.25;;;;;;;;;;6308976;22;20018;-76
2023/04/15 04:51:25;;;;;;;9.13;3.53;;;;;;;;;;6335592;22;20105;-77
2023/04/15 04:53:51;;;;;;;10.77;3.47;;;;;;;;;;6336302;22;20006;-78
2023/04/15 04:56:17;;;;;;;7.43;3.20;;;;;;;;;;6335978;22;20019;-77
2023/04/15 04:58:43;;;;;;;11.35;4.32;;;;;;;;;;6336498;22;20110;-76
2023/04/15 05:01:09;;;;;;;8.30;3.53;;;;;;;;;;6335503;22;20002;-76
2023/04/15 05:03:36;;;;;;;5.05;3.10;;;;;;;;;;6306608;22;19999;-76
2023/04/15 05:06:05;;;;;;;7.63;3.72;;;;;;;;;;6334601;22;20301;-77
2023/04/15 05:08:31;;;;;;;7.55;4.18;;;;;;;;;;6333767;22;20027;-77
2023/04/15 05:10:57;;;;;;;6.85;3.47;;;;;;;;;;6308247;22;20007;-77
2023/04/15 05:13:23;;;;;;;9.75;3.00;;;;;;;;;;6308860;22;20003;-77
2023/04/15 05:15:49;;;;;;;5.88;3.30;;;;;;;;;;6335361;22;19994;-76
2023/04/15 05:18:16;;;;;;;6.95;3.42;;;;;;;;;;6306772;22;19998;-76
2023/04/15 05:20:42;;;;;;;8.23;4.07;;;;;;;;;;6308200;22;20018;-77
2023/04/15 05:23:08;;;;;;;9.02;3.88;;;;;;;;;;6336011;22;20596;-76
2023/04/15 05:25:34;;;;;;;10.07;3.53;;;;;;;;;;6336615;22;20003;-76
2023/04/15 05:28:00;;;;;;;10.20;3.85;;;;;;;;;;6303868;22;20563;-76
2023/04/15 05:30:26;;;;;;;8.52;3.70;;;;;;;;;;6308070;22;20011;-77
2023/04/15 05:32:52;;;;;;;5.20;3.65;;;;;;;;;;6335993;22;20499;-76
2023/04/15 05:35:19;;;;;;;6.25;3.30;;;;;;;;;;6305621;22;20010;-77
2023/04/15 05:37:45;;;;;;;7.30;3.25;;;;;;;;;;6335753;22;19995;-78
2023/04/15 05:40:11;;;;;;;5.28;3.33;;;;;;;;;;6307668;22;20011;-77
2023/04/15 05:42:38;;;;;;;5.72;3.08;;;;;;;;;;6336949;22;20009;-77
2023/04/15 05:45:07;;;;;;;6.95;4.05;;;;;;;;;;6307446;22;20052;-76
2023/04/15 05:47:34;;;;;;;7.10;3.80;;;;;;;;;;6303766;22;20009;-78
2023/04/15 05:50:01;;;;;;;4.38;3.08;;;;;;;;;;6334535;22;20002;-76
2023/04/15 05:52:27;;;;;;;7.15;3.60;;;;;;;;;;6308635;22;20007;-78
2023/04/15 05:54:53;;;;;;;6.00;2.88;;;;;;;;;;6307233;22;20018;-77
2023/04/15 05:57:19;;;;;;;8.68;3.67;;;;;;;;;;6306739;22;19998;-77
2023/04/15 05:59:45;;;;;;;7.60;3.47;;;;;;;;;;6334456;22;20007;-76
2023/04/15 06:02:12;;;;;;;6.70;2.90;;;;;;;;;;6332031;22;20007;-76
2023/04/15 06:04:38;;;;;;;7.93;3.33;;;;;;;;;;6334347;22;20735;-76
2023/04/15 06:07:07;;;;;;;7.10;3.10;;;;;;;;;;6334751;22;19998;-76
2023/04/15 06:09:33;;;;;;;6.72;3.03;;;;;;;;;;6334086;22;20094;-76
2023/04/15 06:12:00;;;;;;;4.35;3.45;;;;;;;;;;6334645;22;19998;-77
2023/04/15 06:14:27;;;;;;;7.40;3.13;;;;;;;;;;6306609;22;20032;-76
2023/04/15 06:16:53;;;;;;;6.05;3.05;;;;;;;;;;6307266;22;20006;-77
2023/04/15 06:19:19;;;;;;;6.40;3.67;;;;;;;;;;6306452;22;20003;-77
2023/04/15 06:21:45;;;;;;;7.72;3.22;;;;;;;;;;6334785;22;20332;-77
2023/04/15 06:24:12;;;;;;;10.50;3.33;;;;;;;;;;6333948;22;20059;-77
2023/04/15 06:26:38;;;;;;;5.60;3.00;;;;;;;;;;6306518;22;20479;-77
2023/04/15 06:29:04;;;;;;;11.80;3.92;;;;;;;;;;6307237;22;20384;-77
2023/04/15 06:31:30;;;;;;;7.03;2.97;;;;;;;;;;6305698;22;20003;-76
2023/04/15 06:33:56;;;;;;;6.85;3.78;;;;;;;;;;6307397;22;20003;-77
2023/04/15 06:36:22;;;;;;;6.30;3.40;;;;;;;;;;6305654;22;20007;-76
2023/04/15 06:38:49;;;;;;;5.03;3.67;;;;;;;;;;6307305;22;20026;-77
2023/04/15 06:41:15;;;;;;;10.23;3.42;;;;;;;;;;6334105;22;19998;-76
2023/04/15 06:43:42;;;;;;;9.18;3.33;;;;;;;;;;6307723;22;20002;-78
2023/04/15 06:46:08;;;;;;;6.13;3.17;;;;;;;;;;6332974;22;20009;-76
2023/04/15 06:48:34;;;;;;;7.75;3.05;;;;;;;;;;6305983;22;20023;-77
2023/04/15 06:51:00;;;;;;;6.43;3.05;;;;;;;;;;6305748;22;20011;-76
2023/04/15 06:53:29;;;;;;;7.97;3.72;;;;;;;;;;6334265;22;20374;-77
2023/04/15 06:55:55;;;;;;;8.95;4.72;;;;;;;;;;6333127;22;20322;-77
2023/04/15 06:58:22;;;;;;;6.50;4.40;;;;;;;;;;6334969;22;20362;-76
2023/04/15 07:00:48;;;;;;;7.13;3.10;;;;;;;;;;6306004;22;20010;-77
2023/04/15 07:03:14;;;;;;;7.05;3.35;;;;;;;;;;6308291;22;20059;-77
2023/04/15 07:05:41;;;;;;;6.50;3.33;;;;;;;;;;6334929;22;20024;-76
2023/04/15 07:08:07;;;;;;;6.35;3.47;;;;;;;;;;6332477;22;20009;-78
2023/04/15 07:10:33;;;;;;;9.77;3.83;;;;;;;;;;6332961;22;20525;-78
2023/04/15 07:13:00;;;;;;;8.98;3.35;;;;;;;;;;6332998;22;20003;-77
2023/04/15 07:15:26;;;;;;;6.95;3.33;;;;;;;;;;6307364;22;20423;-78
2023/04/15 07:17:53;;;;;;;6.82;3.40;;;;;;;;;;6305925;22;20017;-78
2023/04/15 07:20:19;;;;;;;10.77;3.38;;;;;;;;;;6307309;22;20030;-79
2023/04/15 07:22:45;;;;;;;5.18;2.83;;;;;;;;;;6305581;22;20137;-77
2023/04/15 07:25:11;;;;;;;7.53;3.53;;;;;;;;;;6335872;22;20006;-81
2023/04/15 07:27:37;;;;;;;6.60;3.10;;;;;;;;;;6341644;22;20041;-78
2023/04/15 07:30:04;;;;;;;6.65;2.90;;;;;;;;;;6305947;22;20011;-78
2023/04/15 07:32:30;;;;;;;4.70;2.88;;;;;;;;;;6282046;22;20007;-79
2023/04/15 07:34:57;;;;;;;6.25;2.88;;;;;;;;;;6307404;22;20018;-77
2023/04/15 07:37:23;;;;;;;11.02;3.30;;;;;;;;;;6305917;22;20086;-77
2023/04/15 07:39:49;;;;;;;5.30;3.17;;;;;;;;;;6305583;22;20419;-77
2023/04/15 07:42:16;;;;;;;5.70;2.63;;;;;;;;;;6308040;22;20011;-77
2023/04/15 07:44:42;;;;;;;6.00;2.97;;;;;;;;;;6334471;22;20045;-77
2023/04/15 07:47:08;;;;;;;6.82;3.03;;;;;;;;;;6307738;22;20007;-78
2023/04/15 07:49:34;;;;;;;9.38;3.50;;;;;;;;;;6334322;22;20007;-77
2023/04/15 07:52:00;;;;;;;11.48;3.03;;;;;;;;;;6307455;22;20034;-78
2023/04/15 07:54:26;;;;;;;6.13;3.20;;;;;;;;;;6281924;22;20347;-77
2023/04/15 07:56:53;;;;;;;8.88;2.53;;;;;;;;;;6335709;22;19995;-78
2023/04/15 07:59:19;;;;;;;8.13;3.00;;;;;;;;;;6306719;22;20099;-76
2023/04/15 08:01:45;;;;;;;5.47;2.97;;;;;;;;;;6306023;22;20010;-78
2023/04/15 08:04:11;;;;;;;6.22;3.00;;;;;;;;;;6307954;22;20010;-78
2023/04/15 08:06:38;;;;;;;9.60;3.60;;;;;;;;;;6305985;22;20007;-77
2023/04/15 08:09:05;;;;;;;7.30;3.00;;;;;;;;;;6335954;22;20006;-77
2023/04/15 08:11:31;;;;;;;6.72;2.72;;;;;;;;;;6335301;22;20010;-78
2023/04/15 08:13:57;;;;;;;7.32;2.92;;;;;;;;;;6306837;22;20484;-77
2023/04/15 08:16:24;;;;;;;5.10;3.15;;;;;;;;;;6306215;22;20458;-78
2023/04/15 08:18:51;;;;;;;6.65;2.78;;;;;;;;;;6308841;22;19995;-76
2023/04/15 08:21:18;;;;;;;6.55;3.75;;;;;;;;;;6306995;22;20003;-77
2023/04/15 08:23:44;;;;;;;4.20;2.75;;;;;;;;;;6306931;22;19999;-77
2023/04/15 08:26:10;;;;;;;5.93;3.17;;;;;;;;;;6308711;22;20014;-77
2023/04/15 08:28:39;;;;;;;4.53;2.42;;;;;;;;;;6335353;22;20006;-77
2023/04/15 08:31:06;;;;;;;7.22;3.03;;;;;;;;;;6306152;22;20702;-78
2023/04/15 08:33:32;;;;;;;4.82;2.58;;;;;;;;;;6334069;22;20003;-80
2023/04/15 08:35:58;;;;;;;8.25;3.20;;;;;;;;;;6337285;22;19999;-78
2023/04/15 08:38:24;;;;;;;6.15;2.95;;;;;;;;;;6335102;22;19999;-78
2023/04/15 08:40:51;;;;;;;6.60;3.20;;;;;;;;;;6335543;22;20003;-82
2023/04/15 08:43:21;;;;;;;4.75;2.15;;;;;;;;;;6307281;22;20667;-78
2023/04/15 08:45:49;;;;;;;6.75;2.50;;;;;;;;;;6308317;22;20022;-79
2023/04/15 08:48:15;;;;;;;6.05;2.72;;;;;;;;;;6335122;22;20427;-78
2023/04/15 08:50:42;;;;;;;6.80;2.97;;;;;;;;;;6335773;22;20022;-78
2023/04/15 08:53:09;;;;;;;3.30;2.58;;;;;;;;;;6334162;22;20066;-79
2023/04/15 08:55:36;;;;;;;5.47;2.30;;;;;;;;;;6334378;22;20007;-78
2023/04/15 08:58:02;;;;;;;6.78;2.80;;;;;;;;;;6306850;22;20018;-77
2023/04/15 09:00:28;;;;;;;3.95;2.60;;;;;;;;;;6336325;22;20082;-78
2023/04/15 09:02:58;;;;;;;6.50;2.90;;;;;;;;;;6334692;22;20003;-77
2023/04/15 09:05:25;;;;;;;5.30;2.42;;;;;;;;;;6309018;22;20003;-78
2023/04/15 09:07:51;;;;;;;4.68;2.40;;;;;;;;;;6307274;22;20078;-77
2023/04/15 09:10:17;;;;;;;6.45;2.85;;;;;;;;;;6335468;22;20495;-78
2023/04/15 09:12:43;;;;;;;5.82;2.67;;;;;;;;;;6334179;22;20003;-78
2023/04/15 09:15:11;;;;;;;11.65;2.75;;;;;;;;;;6334562;22;20007;-78
2023/04/15 09:17:42;;;;;;;3.63;2.30;;;;;;;;;;6333744;22;20081;-78
2023/04/15 09:20:13;;;;;;;4.00;2.00;;;;;;;;;;6305431;22;20449;-80
2023/04/15 09:22:43;;;;;;;2.33;2.10;;;;;;;;;;6304109;22;20037;-78
2023/04/15 09:25:15;;;;;;;3.28;2.40;;;;;;;;;;6305743;22;20007;-78
2023/04/15 09:27:48;;;;;;;5.78;2.25;;;;;;;;;;6306430;22;20078;-76
2023/04/15 09:30:15;;;;;;;3.97;2.05;;;;;;;;;;6306465;22;20060;-77
2023/04/15 09:32:50;;;;;;;2.67;2.03;;;;;;;;;;6332035;22;20002;-78
2023/04/15 09:35:16;;;;;;;3.50;2.20;;;;;;;;;;6335122;22;20363;-78
2023/04/15 09:37:42;;;;;;;3.08;1.83;;;;;;;;;;6305113;22;20043;-79
2023/04/15 09:40:08;;;;;;;1.80;1.70;;;;;;;;;;6306113;22;20057;-78
2023/04/15 09:42:36;;;;;;;2.13;1.70;;;;;;;;;;6333244;22;20022;-79
2023/04/15 09:45:10;;;;;;;2.50;2.30;;;;;;;;;;6331916;22;20078;-77
2023/04/15 09:47:37;;;;;;;2.92;2.25;;;;;;;;;;6304111;22;20026;-77
2023/04/15 09:50:03;;;;;;;3.72;1.90;;;;;;;;;;6305626;22;20003;-80
2023/04/15 09:52:29;;;;;;;2.75;2.08;;;;;;;;;;6302677;22;20619;-77
2023/04/15 09:54:57;;;;;;;3.00;1.70;;;;;;;;;;6306364;22;20140;-78
2023/04/15 09:57:23;;;;;;;3.95;1.77;;;;;;;;;;6331056;22;20057;-79
2023/04/15 09:59:50;;;;;;;4.05;1.80;;;;;;;;;;6333428;22;20087;-77
2023/04/15 10:02:18;;;;;;;5.63;2.10;;;;;;;;;;6302340;22;20015;-78
2023/04/15 10:04:45;;;;;;;4.30;1.77;;;;;;;;;;6332919;22;20451;-78
2023/04/15 10:07:11;;;;;;;3.17;1.90;;;;;;;;;;6304226;22;20401;-78
2023/04/15 10:09:41;;;;;;;4.45;2.15;;;;;;;;;;6332666;22;20002;-78
2023/04/15 10:12:07;;;;;;;2.60;1.60;;;;;;;;;;6331707;22;20453;-79
2023/04/15 10:14:34;;;;;;;3.25;1.70;;;;;;;;;;6303640;22;20056;-78
2023/04/15 10:17:02;;;;;;;3.38;2.40;;;;;;;;;;6304831;22;20392;-78
2023/04/15 10:19:31;;;;;;;6.43;2.15;;;;;;;;;;6330964;22;20006;-79
2023/04/15 10:21:58;;;;;;;4.82;1.83;;;;;;;;;;6303625;22;20014;-78
2023/04/15 10:24:24;;;;;;;2.83;1.90;;;;;;;;;;6305464;22;20011;-79
2023/04/15 10:26:50;;;;;;;4.18;2.25;;;;;;;;;;6333494;22;20376;-79
2023/04/15 10:29:17;;;;;;;2.42;2.05;;;;;;;;;;6333460;22;20051;-79
2023/04/15 10:31:44;;;;;;;4.47;2.17;;;;;;;;;;6332224;22;19995;-78
2023/04/15 10:34:11;;;;;;;4.53;2.10;;;;;;;;;;6306866;22;20003;-78
2023/04/15 10:36:37;;;;;;;3.53;1.85;;;;;;;;;;6304471;22;20011;-79
2023/04/15 10:39:34;;;;;;;5.47;1.88;;;;;;;;;;6333557;22;20729;-79
2023/04/15 10:42:11;;;;;;;2.30;1.77;;;;;;;;;;6304892;22;20503;-79
2023/04/15 10:44:37;;;;;;;5.30;1.83;;;;;;;;;;6304398;22;20033;-81
2023/04/15 10:47:14;;;;;;;2.13;1.92;;;;;;;;;;6332564;22;19995;-79
2023/04/15 10:49:46;;;;;;;1.90;1.80;;;;;;;;;;6304687;22;20002;-78
2023/04/15 10:52:14;;;;;;;2.88;2.38;;;;;;;;;;6334555;22;20003;-78
2023/04/15 10:54:40;;;;;;;2.25;2.00;;;;;;;;;;6333127;22;20053;-78
2023/04/15 10:57:08;;;;;;;4.05;2.30;;;;;;;;;;6333250;22;20003;-79
2023/04/15 10:59:58;;;;;;;3.30;1.90;;;;;;;;;;6332954;22;20031;-78
2023/04/15 11:02:43;;;;;;;3.13;2.22;;;;;;;;;;6305115;22;20007;-84
2023/04/15 11:05:10;;;;;;;2.53;2.17;;;;;;;;;;6333529;22;20003;-80
2023/04/15 11:07:46;;;;;;;2.20;2.00;;;;;;;;;;6332808;22;20010;-77
2023/04/15 11:10:12;;;;;;;4.28;2.38;;;;;;;;;;6305884;22;20439;-78
2023/04/15 11:12:38;;;;;;;2.60;2.00;;;;;;;;;;6303856;22;20003;-77
2023/04/15 11:15:22;;;;;;;3.97;2.25;;;;;;;;;;6333159;22;19995;-77
2023/04/15 11:17:49;;;;;;;5.13;2.67;;;;;;;;;;6308809;22;20006;-78
2023/04/15 11:20:16;;;;;;;3.38;2.00;;;;;;;;;;6308606;22;20046;-78
2023/04/15 11:22:49;;;;;;;2.17;1.90;;;;;;;;;;6336878;22;20037;-77
2023/04/15 11:25:25;;;;;;;4.88;2.10;;;;;;;;;;6308772;22;20416;-76
2023/04/15 11:27:56;;;;;;;3.08;2.20;;;;;;;;;;6335751;22;20002;-76
2023/04/15 11:30:27;;;;;;;4.10;2.03;;;;;;;;;;6309005;22;20736;-77
2023/04/15 11:33:04;;;;;;;6.03;2.30;;;;;;;;;;6283223;22;20524;-76
2023/04/15 11:35:30;;;;;;;2.42;1.92;;;;;;;;;;6337702;22;20370;-79
2023/04/15 11:37:57;;;;;;;3.15;1.85;;;;;;;;;;6335279;22;20010;-78
2023/04/15 11:40:24;;;;;;;2.80;1.95;;;;;;;;;;6335227;22;20151;-79
2023/04/15 11:43:05;;;;;;;2.88;1.90;;;;;;;;;;6308440;22;20036;-77
2023/04/15 11:45:31;;;;;;;3.33;2.00;;;;;;;;;;6306807;22;20436;-78
2023/04/15 11:48:08;;;;;;;4.57;1.88;;;;;;;;;;6307675;22;20006;-77
2023/04/15 11:50:35;;;;;;;2.50;2.30;;;;;;;;;;6308004;22;20010;-76
2023/04/15 11:53:03;;;;;;;3.90;2.55;;;;;;;;;;6336233;22;19998;-77
2023/04/15 11:55:29;;;;;;;2.42;1.90;;;;;;;;;;6302422;22;20023;-77
2023/04/15 11:58:11;;;;;;;3.72;2.10;;;;;;;;;;6303205;22;20007;-77
2023/04/15 12:00:38;;;;;;;4.25;2.17;;;;;;;;;;6302697;22;20325;-76
2023/04/15 12:03:12;;;;;;;2.53;2.17;;;;;;;;;;6276453;22;20690;-81
2023/04/15 12:05:58;;;;;;;4.07;1.70;;;;;;;;;;6275517;22;20011;-77
2023/04/15 12:08:24;;;;;;;2.83;1.70;;;;;;;;;;6304759;22;20048;-78
2023/04/15 12:10:51;;;;;;;3.05;1.60;;;;;;;;;;6303179;22;20007;-78
2023/04/15 12:13:17;;;;;;;5.70;2.28;;;;;;;;;;6304700;22;20015;-77
2023/04/15 12:15:43;;;;;;;3.35;2.03;;;;;;;;;;6303367;22;20371;-78
2023/04/15 12:18:17;;;;;;;2.08;1.88;;;;;;;;;;6303712;22;20366;-79
2023/04/15 12:20:46;;;;;;;2.67;1.80;;;;;;;;;;6302552;22;20041;-78
2023/04/15 12:23:12;;;;;;;2.78;1.88;;;;;;;;;;6303409;22;20007;-80
2023/04/15 12:25:38;;;;;;;4.60;1.92;;;;;;;;;;6303940;22;20374;-78
2023/04/15 12:28:14;;;;;;;2.15;1.80;;;;;;;;;;6302932;22;20023;-77
2023/04/15 12:30:40;;;;;;;;;;;;;;;;;;6301056;22;20010;-79
2023/04/15 12:33:06;;;;;;;1.98;1.58;;;;;;;;;;6300881;22;20320;-78
2023/04/15 12:35:32;;;;;;;3.03;1.80;;;;;;;;;;6302320;22;20546;-79
2023/04/15 12:37:58;;;;;;;2.22;1.80;;;;;;;;;;6298786;22;20082;-77
2023/04/15 12:40:25;;;;;;;4.45;1.95;;;;;;;;;;6301023;22;20548;-77
2023/04/15 12:42:52;;;;;;;4.63;2.30;;;;;;;;;;6303400;22;20033;-80
2023/04/15 12:45:18;;;;;;;2.65;1.70;;;;;;;;;;6301527;22;20079;-78
2023/04/15 12:47:45;;;;;;;3.40;1.80;;;;;;;;;;6300354;22;20003;-76
2023/04/15 12:50:11;;;;;;;3.08;2.70;;;;;;;;;;6302556;22;20004;-77
2023/04/15 12:52:37;;;;;;;2.08;1.70;;;;;;;;;;6302056;22;20007;-78
2023/04/15 12:55:03;;;;;;;1.77;1.65;;;;;;;;;;6314279;22;20495;-77
2023/04/15 12:57:29;;;;;;;1.98;1.80;;;;;;;;;;6304346;22;20072;-76
2023/04/15 12:59:55;;;;;;;2.60;1.70;;;;;;;;;;6305834;22;20030;-77
2023/04/15 13:02:24;;;;;;;3.30;1.90;;;;;;;;;;6333295;22;20010;-78
2023/04/15 13:04:50;;;;;;;2.85;1.70;;;;;;;;;;6305439;22;20017;-77
2023/04/15 13:07:16;;;;;;;1.70;1.60;;;;;;;;;;6304615;22;20368;-77
2023/04/15 13:09:42;;;;;;;2.22;1.80;;;;;;;;;;6305108;22;20101;-77
2023/04/15 13:12:09;;;;;;;4.35;2.13;;;;;;;;;;6333151;22;20037;-78
2023/04/15 13:14:35;;;;;;;3.00;1.83;;;;;;;;;;6333522;22;19994;-77
2023/04/15 13:17:03;;;;;;;1.73;1.60;;;;;;;;;;6333599;22;20002;-77
2023/04/15 13:19:29;;;;;;;2.78;1.70;;;;;;;;;;6329202;22;20007;-78
2023/04/15 13:21:55;;;;;;;2.22;1.95;;;;;;;;;;6334248;22;20074;-76
2023/04/15 13:24:21;;;;;;;1.60;1.50;;;;;;;;;;6333100;22;20378;-77
2023/04/15 13:26:47;;;;;;;1.80;1.40;;;;;;;;;;6307379;22;20081;-78
2023/04/15 13:29:14;;;;;;;4.13;2.25;;;;;;;;;;6303249;22;20060;-77
2023/04/15 13:31:40;;;;;;;3.67;1.77;;;;;;;;;;6305355;22;20003;-77
2023/04/15 13:34:07;;;;;;;3.88;1.70;;;;;;;;;;6303454;22;20029;-76
2023/04/15 13:36:34;;;;;;;2.88;1.83;;;;;;;;;;6304546;22;20346;-78
2023/04/15 13:39:00;;;;;;;2.20;1.95;;;;;;;;;;6304692;22;20014;-80
2023/04/15 13:41:26;;;;;;;2.65;1.73;;;;;;;;;;6333434;22;20005;-75
2023/04/15 13:43:52;;;;;;;1.58;1.48;;;;;;;;;;6305475;22;19998;-77
2023/04/15 13:46:19;;;;;;;3.08;1.80;;;;;;;;;;6305066;22;20007;-78
2023/04/15 13:48:45;;;;;;;4.28;1.70;;;;;;;;;;6331995;22;20001;-76
2023/04/15 13:51:11;;;;;;;1.65;1.55;;;;;;;;;;6332737;22;20090;-76
2023/04/15 13:53:37;;;;;;;3.08;1.70;;;;;;;;;;6332596;22;20021;-75
2023/04/15 13:56:03;;;;;;;3.95;1.77;;;;;;;;;;6331701;22;20060;-77
2023/04/15 13:58:30;;;;;;;3.47;1.80;;;;;;;;;;6332423;22;20038;-76
2023/04/15 14:00:56;;;;;;;1.95;1.60;;;;;;;;;;6304655;22;20014;-77
2023/04/15 14:03:22;;;;;;;3.58;1.67;;;;;;;;;;6333219;22;19999;-75
2023/04/15 14:05:54;;;;;;;3.10;1.70;;;;;;;;;;6332643;22;20002;-77
2023/04/15 14:08:20;;;;;;;2.40;1.90;;;;;;;;;;6331048;22;20431;-78
2023/04/15 14:10:48;;;;;;;2.40;1.77;;;;;;;;;;6333803;22;20074;-76
2023/04/15 14:13:14;;;;;;;2.10;1.70;;;;;;;;;;6304863;22;19999;-76
2023/04/15 14:15:42;;;;;;;2.80;1.65;;;;;;;;;;6303335;22;19999;-77
2023/04/15 14:18:08;;;;;;;2.72;2.00;;;;;;;;;;6333424;22;20078;-80
2023/04/15 14:20:35;;;;;;;2.38;1.90;;;;;;;;;;6304778;22;20038;-79
2023/04/15 14:23:02;;;;;;;2.55;1.80;;;;;;;;;;6304936;22;20017;-81
2023/04/15 14:25:28;;;;;;;1.75;1.50;;;;;;;;;;6303781;22;20007;-79
2023/04/15 14:27:54;;;;;;;4.18;1.92;;;;;;;;;;6304817;22;20063;-76
2023/04/15 14:30:21;;;;;;;1.98;1.67;;;;;;;;;;6331984;22;20002;-80
2023/04/15 14:32:47;;;;;;;3.72;1.70;;;;;;;;;;6303629;22;20108;-78
2023/04/15 14:35:13;;;;;;;2.47;1.60;;;;;;;;;;6333647;22;20026;-79
2023/04/15 14:37:39;;;;;;;6.63;1.92;;;;;;;;;;6304298;22;20031;-82
2023/04/15 14:40:06;;;;;;;4.25;2.00;;;;;;;;;;6304614;22;20011;-78
2023/04/15 14:42:32;;;;;;;3.10;1.98;;;;;;;;;;6332176;22;20444;-78